Time,TemperatureF,DewpointF,PressureIn,WindDirection,WindDirectionDegrees,WindSpeedMPH,WindSpeedGustMPH,Humidity,HourlyPrecipIn,Conditions,Clouds,dailyrainin,SoftwareType,DateUTC
2013-02-03 00:00:00,33.7,32.4,30.18,SW,217,1.0,1.0,95,0.00,,,0.03,VWS V14.00,2013-02-03 05:00:00,
2013-02-03 00:03:00,33.7,32.4,30.18,SW,235,1.0,2.0,95,0.00,,,0.03,VWS V14.00,2013-02-03 05:03:00,
2013-02-03 00:08:00,33.8,32.8,30.18,WSW,239,0.0,1.0,96,0.00,,,0.03,VWS V14.00,2013-02-03 05:08:00,
2013-02-03 00:13:00,33.8,32.8,30.18,WSW,239,0.0,0.0,96,0.00,,,0.03,VWS V14.00,2013-02-03 05:13:00,
2013-02-03 00:18:00,33.8,32.5,30.18,SW,217,1.0,1.0,95,0.00,,,0.03,VWS V14.00,2013-02-03 05:18:00,
2013-02-03 00:23:00,33.5,32.2,30.18,SSW,205,1.0,1.0,95,0.00,,,0.03,VWS V14.00,2013-02-03 05:23:00,
2013-02-03 00:28:00,33.4,32.1,30.17,SSW,212,1.0,2.0,95,0.00,,,0.03,VWS V14.00,2013-02-03 05:28:00,
2013-02-03 00:33:00,33.4,32.4,30.17,SW,221,1.0,2.0,96,0.00,,,0.03,VWS V14.00,2013-02-03 05:33:00,
2013-02-03 00:38:00,33.6,32.6,30.17,SW,217,2.0,2.0,96,0.00,,,0.03,VWS V14.00,2013-02-03 05:38:00,
2013-02-03 00:43:00,33.7,32.7,30.17,SW,228,1.0,2.0,96,0.00,,,0.03,VWS V14.00,2013-02-03 05:43:00,
2013-02-03 00:48:00,33.7,32.7,30.17,SW,224,1.0,2.0,96,0.00,,,0.03,VWS V14.00,2013-02-03 05:48:00,
2013-02-03 00:54:00,33.6,32.6,30.17,SW,227,1.0,2.0,96,0.00,,,0.03,VWS V14.00,2013-02-03 05:54:00,
2013-02-03 00:59:00,33.5,32.5,30.17,WSW,243,1.0,1.0,96,0.00,,,0.03,VWS V14.00,2013-02-03 05:59:00,
2013-02-03 01:04:00,33.4,32.4,30.17,SW,236,1.0,2.0,96,0.00,,,0.00,VWS V14.00,2013-02-03 06:04:00,
2013-02-03 01:09:00,33.4,32.4,30.17,SW,232,1.0,1.0,96,0.00,,,0.00,VWS V14.00,2013-02-03 06:09:00,
2013-02-03 01:14:00,33.5,32.5,30.17,SW,221,1.0,2.0,96,0.00,,,0.00,VWS V14.00,2013-02-03 06:14:00,
2013-02-03 01:19:00,33.3,32.3,30.17,SW,231,1.0,2.0,96,0.00,,,0.00,VWS V14.00,2013-02-03 06:19:00,
2013-02-03 01:24:00,33.2,31.9,30.17,WSW,243,2.0,2.0,95,0.00,,,0.00,VWS V14.00,2013-02-03 06:24:00,
2013-02-03 01:29:00,33.3,32.0,30.17,SW,231,1.0,2.0,95,0.00,,,0.00,VWS V14.00,2013-02-03 06:29:00,
2013-02-03 01:34:00,33.2,31.9,30.17,SW,225,2.0,2.0,95,0.00,,,0.00,VWS V14.00,2013-02-03 06:34:00,
2013-02-03 01:39:00,33.2,31.9,30.16,SW,229,3.0,3.0,95,0.00,,,0.00,VWS V14.00,2013-02-03 06:39:00,
2013-02-03 01:44:00,33.3,32.0,30.16,SW,226,1.0,3.0,95,0.00,,,0.00,VWS V14.00,2013-02-03 06:44:00,
2013-02-03 01:49:00,33.3,32.0,30.16,SW,236,2.0,2.0,95,0.00,,,0.00,VWS V14.00,2013-02-03 06:49:00,
2013-02-03 01:54:00,33.6,32.3,30.16,WSW,246,3.0,3.0,95,0.00,,,0.00,VWS V14.00,2013-02-03 06:54:00,
2013-02-03 01:59:00,33.7,32.4,30.17,WSW,243,2.0,3.0,95,0.00,,,0.00,VWS V14.00,2013-02-03 06:59:00,
2013-02-03 02:04:00,33.9,32.6,30.16,WSW,249,1.0,4.0,95,0.00,,,0.00,VWS V14.00,2013-02-03 07:04:00,
2013-02-03 02:09:00,34.0,32.5,30.16,WSW,243,2.0,5.0,94,0.00,,,0.00,VWS V14.00,2013-02-03 07:09:00,
2013-02-03 02:14:00,34.0,32.5,30.16,SSW,212,2.0,3.0,94,0.00,,,0.00,VWS V14.00,2013-02-03 07:14:00,
2013-02-03 02:19:00,33.9,32.1,30.16,WSW,239,2.0,3.0,93,0.00,,,0.00,VWS V14.00,2013-02-03 07:19:00,
2013-02-03 02:24:00,33.7,31.9,30.16,SW,229,2.0,3.0,93,0.00,,,0.00,VWS V14.00,2013-02-03 07:24:00,
2013-02-03 02:29:00,33.5,31.7,30.16,SW,236,2.0,3.0,93,0.00,,,0.00,VWS V14.00,2013-02-03 07:29:00,
2013-02-03 02:34:00,33.6,32.1,30.16,SW,223,2.0,3.0,94,0.00,,,0.00,VWS V14.00,2013-02-03 07:34:00,
2013-02-03 02:39:00,33.5,32.0,30.16,SW,225,2.0,2.0,94,0.00,,,0.00,VWS V14.00,2013-02-03 07:39:00,
2013-02-03 02:44:00,33.4,31.9,30.15,SW,227,2.0,2.0,94,0.00,,,0.00,VWS V14.00,2013-02-03 07:44:00,
2013-02-03 02:49:00,33.5,32.0,30.15,SW,229,1.0,3.0,94,0.00,,,0.00,VWS V14.00,2013-02-03 07:49:00,
2013-02-03 02:54:00,33.4,31.9,30.15,SW,219,2.0,2.0,94,0.00,,,0.00,VWS V14.00,2013-02-03 07:54:00,
2013-02-03 02:59:00,33.4,31.9,30.15,SSW,212,1.0,2.0,94,0.00,,,0.00,VWS V14.00,2013-02-03 07:59:00,
2013-02-03 03:04:00,33.3,31.8,30.15,SSW,210,1.0,2.0,94,0.00,,,0.00,VWS V14.00,2013-02-03 08:04:00,
2013-02-03 03:09:00,33.3,31.8,30.15,SSW,211,1.0,1.0,94,0.00,,,0.00,VWS V14.00,2013-02-03 08:09:00,
2013-02-03 03:14:00,33.2,31.7,30.15,SW,224,2.0,2.0,94,0.00,,,0.00,VWS V14.00,2013-02-03 08:14:00,
2013-02-03 03:19:00,33.0,31.5,30.15,SSW,198,2.0,3.0,94,0.00,,,0.00,VWS V14.00,2013-02-03 08:19:00,
2013-02-03 03:24:00,32.9,31.4,30.14,SSW,209,2.0,2.0,94,0.00,,,0.00,VWS V14.00,2013-02-03 08:24:00,
2013-02-03 03:29:00,32.6,31.1,30.14,SSW,203,2.0,3.0,94,0.00,,,0.00,VWS V14.00,2013-02-03 08:29:00,
2013-02-03 03:34:00,32.4,30.9,30.14,SSE,159,1.0,2.0,94,0.00,,,0.00,VWS V14.00,2013-02-03 08:34:00,
2013-02-03 03:39:00,32.4,30.9,30.13,SW,215,2.0,3.0,94,0.00,,,0.00,VWS V14.00,2013-02-03 08:39:00,
2013-02-03 03:44:00,32.2,30.7,30.13,SW,219,2.0,3.0,94,0.00,,,0.00,VWS V14.00,2013-02-03 08:44:00,
2013-02-03 03:49:00,32.1,30.6,30.13,SSW,208,1.0,3.0,94,0.00,,,0.00,VWS V14.00,2013-02-03 08:49:00,
2013-02-03 03:54:00,32.1,30.6,30.13,SW,219,2.0,3.0,94,0.00,,,0.00,VWS V14.00,2013-02-03 08:54:00,
2013-02-03 03:59:00,32.0,30.5,30.13,SW,235,2.0,4.0,94,0.00,,,0.00,VWS V14.00,2013-02-03 08:59:00,
2013-02-03 04:04:00,32.4,31.1,30.12,SW,221,3.0,3.0,95,0.00,,,0.00,VWS V14.00,2013-02-03 09:04:00,
2013-02-03 04:09:00,32.4,30.9,30.12,SSW,208,3.0,4.0,94,0.00,,,0.00,VWS V14.00,2013-02-03 09:09:00,
2013-02-03 04:14:00,32.2,30.7,30.12,SW,221,3.0,4.0,94,0.00,,,0.00,VWS V14.00,2013-02-03 09:14:00,
2013-02-03 04:19:00,32.1,30.6,30.12,SSW,213,2.0,3.0,94,0.00,,,0.00,VWS V14.00,2013-02-03 09:19:00,
2013-02-03 04:24:00,32.1,30.6,30.12,SSW,208,2.0,3.0,94,0.00,,,0.00,VWS V14.00,2013-02-03 09:24:00,
2013-02-03 04:29:00,32.0,30.5,30.11,SW,222,3.0,3.0,94,0.00,,,0.00,VWS V14.00,2013-02-03 09:29:00,
2013-02-03 04:34:00,32.1,30.8,30.11,WSW,239,3.0,3.0,95,0.00,,,0.00,VWS V14.00,2013-02-03 09:34:00,
2013-02-03 04:39:00,32.1,30.6,30.11,SSW,212,2.0,4.0,94,0.00,,,0.00,VWS V14.00,2013-02-03 09:39:00,
2013-02-03 04:44:00,32.0,30.5,30.11,SW,217,3.0,3.0,94,0.00,,,0.00,VWS V14.00,2013-02-03 09:44:00,
2013-02-03 04:49:00,31.9,30.4,30.10,SSW,207,2.0,3.0,94,0.00,,,0.00,VWS V14.00,2013-02-03 09:49:00,
2013-02-03 04:54:00,32.1,30.8,30.10,SSW,207,2.0,5.0,95,0.00,,,0.00,VWS V14.00,2013-02-03 09:54:00,
2013-02-03 04:59:00,32.4,31.1,30.10,WSW,247,3.0,5.0,95,0.00,,,0.00,VWS V14.00,2013-02-03 09:59:00,
2013-02-03 05:04:00,32.7,31.4,30.10,WSW,243,4.0,5.0,95,0.00,,,0.00,VWS V14.00,2013-02-03 10:04:00,
2013-02-03 05:09:00,32.7,31.2,30.10,SW,224,3.0,4.0,94,0.00,,,0.00,VWS V14.00,2013-02-03 10:09:00,
2013-02-03 05:14:00,32.7,31.2,30.11,SW,218,3.0,4.0,94,0.00,,,0.00,VWS V14.00,2013-02-03 10:14:00,
2013-02-03 05:19:00,32.8,31.3,30.10,SW,215,2.0,4.0,94,0.00,,,0.00,VWS V14.00,2013-02-03 10:19:00,
2013-02-03 05:24:00,32.7,31.2,30.11,SW,219,3.0,4.0,94,0.00,,,0.00,VWS V14.00,2013-02-03 10:24:00,
2013-02-03 05:29:00,32.9,31.4,30.11,SW,215,2.0,3.0,94,0.00,,,0.00,VWS V14.00,2013-02-03 10:29:00,
2013-02-03 05:34:00,33.0,31.5,30.11,SW,218,3.0,4.0,94,0.00,,,0.00,VWS V14.00,2013-02-03 10:34:00,
2013-02-03 05:39:00,32.9,31.4,30.10,SW,214,1.0,3.0,94,0.00,,,0.00,VWS V14.00,2013-02-03 10:39:00,
2013-02-03 05:44:00,33.0,31.5,30.10,SSW,213,3.0,4.0,94,0.00,,,0.00,VWS V14.00,2013-02-03 10:44:00,
2013-02-03 05:49:00,33.1,31.6,30.10,SSW,207,3.0,4.0,94,0.00,,,0.00,VWS V14.00,2013-02-03 10:49:00,
2013-02-03 05:54:00,33.2,31.7,30.10,SW,224,3.0,5.0,94,0.00,,,0.00,VWS V14.00,2013-02-03 10:54:00,
2013-02-03 05:59:00,33.4,31.9,30.10,SW,229,3.0,5.0,94,0.00,,,0.00,VWS V14.00,2013-02-03 10:59:00,
2013-02-03 06:04:00,33.5,32.0,30.10,SW,235,5.0,6.0,94,0.00,,,0.00,VWS V14.00,2013-02-03 11:04:00,
2013-02-03 06:09:00,33.7,32.2,30.10,SW,226,4.0,6.0,94,0.00,,,0.00,VWS V14.00,2013-02-03 11:09:00,
2013-02-03 06:14:00,33.8,32.3,30.10,SW,222,6.0,7.0,94,0.00,,,0.00,VWS V14.00,2013-02-03 11:14:00,
2013-02-03 06:19:00,33.9,32.4,30.10,SW,231,5.0,7.0,94,0.00,,,0.00,VWS V14.00,2013-02-03 11:19:00,
2013-02-03 06:24:00,33.9,32.4,30.10,WSW,252,4.0,6.0,94,0.00,,,0.00,VWS V14.00,2013-02-03 11:24:00,
2013-02-03 06:29:00,34.0,32.5,30.09,SW,221,3.0,7.0,94,0.00,,,0.00,VWS V14.00,2013-02-03 11:29:00,
2013-02-03 06:34:00,33.9,32.4,30.09,SW,232,4.0,7.0,94,0.00,,,0.00,VWS V14.00,2013-02-03 11:34:00,
2013-02-03 06:39:00,34.0,32.5,30.09,SW,228,6.0,8.0,94,0.00,,,0.00,VWS V14.00,2013-02-03 11:39:00,
2013-02-03 06:44:00,34.2,32.7,30.08,SW,229,4.0,8.0,94,0.00,,,0.00,VWS V14.00,2013-02-03 11:44:00,
2013-02-03 06:49:00,34.3,32.8,30.08,SW,228,7.0,8.0,94,0.00,,,0.00,VWS V14.00,2013-02-03 11:49:00,
2013-02-03 06:54:00,34.4,32.6,30.08,SW,232,5.0,8.0,93,0.00,,,0.00,VWS V14.00,2013-02-03 11:54:00,
2013-02-03 06:59:00,34.3,32.5,30.09,WSW,249,5.0,6.0,93,0.00,,,0.00,VWS V14.00,2013-02-03 11:59:00,
2013-02-03 07:05:00,34.3,32.5,30.09,SW,231,4.0,6.0,93,0.00,,,0.00,VWS V14.00,2013-02-03 12:05:00,
2013-02-03 07:10:00,34.2,32.4,30.09,SW,229,5.0,6.0,93,0.00,,,0.00,VWS V14.00,2013-02-03 12:10:00,
2013-02-03 07:15:00,34.2,32.4,30.09,WSW,252,4.0,6.0,93,0.00,,,0.00,VWS V14.00,2013-02-03 12:15:00,
2013-02-03 07:20:00,34.3,32.5,30.10,WSW,239,3.0,7.0,93,0.00,,,0.00,VWS V14.00,2013-02-03 12:20:00,
2013-02-03 07:25:00,34.5,32.7,30.10,WSW,247,8.0,9.0,93,0.00,,,0.00,VWS V14.00,2013-02-03 12:25:00,
2013-02-03 07:30:00,34.6,32.8,30.10,WSW,242,4.0,8.0,93,0.00,,,0.00,VWS V14.00,2013-02-03 12:30:00,
2013-02-03 07:35:00,34.6,32.5,30.10,West,259,5.0,7.0,92,0.00,,,0.00,VWS V14.00,2013-02-03 12:35:00,
2013-02-03 07:40:00,34.5,32.4,30.10,WSW,239,4.0,8.0,92,0.00,,,0.00,VWS V14.00,2013-02-03 12:40:00,
2013-02-03 07:45:00,34.5,32.4,30.10,SW,229,4.0,8.0,92,0.00,,,0.00,VWS V14.00,2013-02-03 12:45:00,
2013-02-03 07:50:00,34.3,32.2,30.10,WSW,239,5.0,6.0,92,0.00,,,0.00,VWS V14.00,2013-02-03 12:50:00,
2013-02-03 07:55:00,34.1,32.0,30.11,SW,221,4.0,7.0,92,0.00,,,0.00,VWS V14.00,2013-02-03 12:55:00,
2013-02-03 08:00:00,34.1,32.0,30.10,SW,227,5.0,5.0,92,0.00,,,0.00,VWS V14.00,2013-02-03 13:00:00,
2013-02-03 08:05:00,34.2,32.1,30.10,WSW,249,3.0,6.0,92,0.00,,,0.00,VWS V14.00,2013-02-03 13:05:00,
2013-02-03 08:10:00,34.3,32.2,30.10,WSW,243,4.0,5.0,92,0.00,,,0.00,VWS V14.00,2013-02-03 13:10:00,
2013-02-03 08:15:00,34.4,32.3,30.11,SW,229,2.0,6.0,92,0.00,,,0.00,VWS V14.00,2013-02-03 13:15:00,
2013-02-03 08:20:00,34.7,32.6,30.11,SW,228,2.0,4.0,92,0.00,,,0.00,VWS V14.00,2013-02-03 13:20:00,
2013-02-03 08:25:00,34.8,32.5,30.11,WSW,256,2.0,3.0,91,0.00,,,0.00,VWS V14.00,2013-02-03 13:25:00,
2013-02-03 08:30:00,35.0,32.6,30.11,WSW,246,4.0,5.0,91,0.00,,,0.00,VWS V14.00,2013-02-03 13:30:00,
2013-02-03 08:35:00,35.3,32.9,30.11,WSW,250,3.0,5.0,91,0.00,,,0.00,VWS V14.00,2013-02-03 13:35:00,
2013-02-03 08:40:00,35.5,33.1,30.11,WSW,253,2.0,3.0,91,0.00,,,0.00,VWS V14.00,2013-02-03 13:40:00,
2013-02-03 08:45:00,35.7,33.3,30.11,WNW,288,2.0,3.0,91,0.00,,,0.00,VWS V14.00,2013-02-03 13:45:00,
2013-02-03 08:50:00,36.1,33.5,30.12,West,259,1.0,3.0,90,0.00,,,0.00,VWS V14.00,2013-02-03 13:50:00,
2013-02-03 08:55:00,36.5,33.8,30.12,WSW,249,2.0,4.0,90,0.00,,,0.00,VWS V14.00,2013-02-03 13:55:00,
2013-02-03 09:00:00,37.1,34.2,30.12,West,262,5.0,5.0,89,0.00,,,0.00,VWS V14.00,2013-02-03 14:00:00,
2013-02-03 09:05:00,37.6,34.1,30.12,WNW,290,3.0,5.0,87,0.00,,,0.00,VWS V14.00,2013-02-03 14:05:00,
2013-02-03 09:10:00,38.3,34.8,30.12,WNW,293,5.0,8.0,87,0.00,,,0.00,VWS V14.00,2013-02-03 14:10:00,
2013-02-03 09:15:00,39.1,34.7,30.12,West,276,5.0,9.0,84,0.00,,,0.00,VWS V14.00,2013-02-03 14:15:00,
2013-02-03 09:21:00,39.8,35.1,30.13,West,276,3.0,8.0,83,0.00,,,0.00,VWS V14.00,2013-02-03 14:21:00,
2013-02-03 09:26:00,40.4,35.0,30.13,NW,307,9.0,11.0,81,0.00,,,0.00,VWS V14.00,2013-02-03 14:26:00,
2013-02-03 09:31:00,40.9,35.2,30.13,WNW,296,6.0,10.0,80,0.00,,,0.00,VWS V14.00,2013-02-03 14:31:00,
2013-02-03 09:36:00,41.3,35.3,30.13,West,281,6.0,12.0,79,0.00,,,0.00,VWS V14.00,2013-02-03 14:36:00,
2013-02-03 09:41:00,41.7,35.4,30.13,WNW,288,6.0,11.0,78,0.00,,,0.00,VWS V14.00,2013-02-03 14:41:00,
2013-02-03 09:46:00,42.1,35.4,30.12,WNW,302,11.0,13.0,77,0.00,,,0.00,VWS V14.00,2013-02-03 14:46:00,
2013-02-03 09:51:00,42.5,35.5,30.13,WNW,287,10.0,11.0,76,0.00,,,0.00,VWS V14.00,2013-02-03 14:51:00,
2013-02-03 09:56:00,42.9,35.9,30.13,West,280,5.0,13.0,76,0.00,,,0.00,VWS V14.00,2013-02-03 14:56:00,
2013-02-03 10:01:00,43.2,35.5,30.13,WNW,283,16.0,16.0,74,0.00,,,0.00,VWS V14.00,2013-02-03 15:01:00,
2013-02-03 10:06:00,43.7,36.3,30.12,West,277,7.0,12.0,75,0.00,,,0.00,VWS V14.00,2013-02-03 15:06:00,
2013-02-03 10:11:00,44.0,35.6,30.13,WNW,287,12.0,16.0,72,0.00,,,0.01,VWS V14.00,2013-02-03 15:11:00,
2013-02-03 10:16:00,44.1,35.3,30.13,WNW,287,11.0,19.0,71,0.00,,,0.01,VWS V14.00,2013-02-03 15:16:00,
2013-02-03 10:21:00,44.4,35.6,30.13,WNW,293,12.0,13.0,71,0.00,,,0.01,VWS V14.00,2013-02-03 15:21:00,
2013-02-03 10:26:00,44.6,35.1,30.13,NW,307,8.0,18.0,69,0.00,,,0.01,VWS V14.00,2013-02-03 15:26:00,
2013-02-03 10:31:00,44.9,35.4,30.13,WNW,288,7.0,15.0,69,0.00,,,0.01,VWS V14.00,2013-02-03 15:31:00,
2013-02-03 10:36:00,45.1,35.9,30.13,West,278,7.0,14.0,70,0.00,,,0.01,VWS V14.00,2013-02-03 15:36:00,
2013-02-03 10:41:00,45.2,35.3,30.13,WNW,295,10.0,19.0,68,0.00,,,0.01,VWS V14.00,2013-02-03 15:41:00,
2013-02-03 10:46:00,45.5,35.2,30.13,WNW,302,5.0,12.0,67,0.00,,,0.01,VWS V14.00,2013-02-03 15:46:00,
2013-02-03 10:51:00,45.7,34.6,30.13,WNW,290,8.0,16.0,65,0.00,,,0.01,VWS V14.00,2013-02-03 15:51:00,
2013-02-03 10:57:00,46.3,35.6,30.13,West,273,11.0,11.0,66,0.00,,,0.01,VWS V14.00,2013-02-03 15:57:00,
2013-02-03 11:02:00,46.5,34.6,30.13,WSW,249,15.0,15.0,63,0.00,,,0.01,VWS V14.00,2013-02-03 16:02:00,
2013-02-03 11:07:00,46.5,33.0,30.13,NW,321,8.0,14.0,59,0.00,,,0.01,VWS V14.00,2013-02-03 16:07:00,
2013-02-03 11:12:00,46.7,33.2,30.13,West,271,6.0,16.0,59,0.00,,,0.01,VWS V14.00,2013-02-03 16:12:00,
2013-02-03 11:17:00,46.9,31.6,30.13,NW,305,15.0,20.0,55,0.00,,,0.01,VWS V14.00,2013-02-03 16:17:00,
2013-02-03 11:22:00,47.2,31.9,30.13,WNW,291,10.0,14.0,55,0.00,,,0.01,VWS V14.00,2013-02-03 16:22:00,
2013-02-03 11:27:00,47.5,31.2,30.13,WSW,255,10.0,15.0,53,0.00,,,0.01,VWS V14.00,2013-02-03 16:27:00,
2013-02-03 11:32:00,47.7,31.4,30.13,West,273,13.0,14.0,53,0.00,,,0.01,VWS V14.00,2013-02-03 16:32:00,
2013-02-03 11:37:00,47.5,31.2,30.13,WNW,297,9.0,16.0,53,0.00,,,0.01,VWS V14.00,2013-02-03 16:37:00,
2013-02-03 11:42:00,47.7,29.5,30.13,WNW,288,11.0,18.0,49,0.00,,,0.01,VWS V14.00,2013-02-03 16:42:00,
2013-02-03 11:47:00,47.6,30.4,30.13,WNW,293,7.0,16.0,51,0.00,,,0.01,VWS V14.00,2013-02-03 16:47:00,
2013-02-03 11:52:00,48.0,32.2,30.13,WNW,291,11.0,14.0,54,0.00,,,0.01,VWS V14.00,2013-02-03 16:52:00,
2013-02-03 11:57:00,48.3,32.0,30.13,WNW,300,5.0,10.0,53,0.00,,,0.01,VWS V14.00,2013-02-03 16:57:00,
2013-02-03 12:02:00,48.3,30.5,30.13,West,278,5.0,16.0,50,0.00,,,0.01,VWS V14.00,2013-02-03 17:02:00,
2013-02-03 12:07:00,48.3,31.5,30.12,WNW,288,13.0,17.0,52,0.00,,,0.01,VWS V14.00,2013-02-03 17:07:00,
2013-02-03 12:12:00,48.1,31.3,30.13,WNW,288,8.0,17.0,52,0.00,,,0.01,VWS V14.00,2013-02-03 17:12:00,
2013-02-03 12:17:00,48.2,31.4,30.12,WNW,291,11.0,16.0,52,0.00,,,0.01,VWS V14.00,2013-02-03 17:17:00,
2013-02-03 12:22:00,48.5,31.7,30.12,WNW,288,9.0,13.0,52,0.00,,,0.01,VWS V14.00,2013-02-03 17:22:00,
2013-02-03 12:27:00,48.7,29.4,30.12,WNW,289,11.0,21.0,47,0.00,,,0.01,VWS V14.00,2013-02-03 17:27:00,
2013-02-03 12:32:00,49.1,30.3,30.12,NW,314,3.0,14.0,48,0.00,,,0.01,VWS V14.00,2013-02-03 17:32:00,
2013-02-03 12:37:00,49.1,29.8,30.12,West,276,13.0,17.0,47,0.00,,,0.01,VWS V14.00,2013-02-03 17:37:00,
2013-02-03 12:42:00,49.0,30.2,30.12,NW,310,9.0,16.0,48,0.00,,,0.01,VWS V14.00,2013-02-03 17:42:00,
2013-02-03 12:47:00,49.3,31.0,30.12,West,276,5.0,15.0,49,0.00,,,0.01,VWS V14.00,2013-02-03 17:47:00,
2013-02-03 12:52:00,50.1,30.7,30.12,SW,231,8.0,14.0,47,0.00,,,0.01,VWS V14.00,2013-02-03 17:52:00,
2013-02-03 12:57:00,50.3,30.9,30.12,SW,228,13.0,15.0,47,0.00,,,0.01,VWS V14.00,2013-02-03 17:57:00,
2013-02-03 13:02:00,50.2,29.7,30.12,WNW,287,13.0,16.0,45,0.00,,,0.01,VWS V14.00,2013-02-03 18:02:00,
2013-02-03 13:07:00,50.0,29.5,30.11,WNW,295,12.0,15.0,45,0.00,,,0.01,VWS V14.00,2013-02-03 18:07:00,
2013-02-03 13:12:00,50.0,29.5,30.11,WNW,295,12.0,19.0,45,0.00,,,0.01,VWS V14.00,2013-02-03 18:12:00,
2013-02-03 13:17:00,50.4,31.5,30.11,SW,235,12.0,13.0,48,0.00,,,0.01,VWS V14.00,2013-02-03 18:17:00,
2013-02-03 13:22:00,50.3,30.3,30.10,WSW,248,11.0,13.0,46,0.00,,,0.01,VWS V14.00,2013-02-03 18:22:00,
2013-02-03 13:27:00,50.8,29.7,30.10,West,264,8.0,19.0,44,0.00,,,0.01,VWS V14.00,2013-02-03 18:27:00,
2013-02-03 13:32:00,50.9,29.8,30.10,NW,321,12.0,18.0,44,0.00,,,0.01,VWS V14.00,2013-02-03 18:32:00,
2013-02-03 13:38:00,51.0,29.9,30.10,West,276,8.0,15.0,44,0.00,,,0.01,VWS V14.00,2013-02-03 18:38:00,
2013-02-03 13:43:00,51.2,28.9,30.10,WNW,296,11.0,17.0,42,0.00,,,0.01,VWS V14.00,2013-02-03 18:43:00,
2013-02-03 13:48:00,51.2,28.3,30.10,WNW,285,9.0,14.0,41,0.00,,,0.01,VWS V14.00,2013-02-03 18:48:00,
2013-02-03 13:53:00,51.3,28.4,30.09,WNW,300,20.0,20.0,41,0.00,,,0.01,VWS V14.00,2013-02-03 18:53:00,
2013-02-03 13:58:00,51.3,29.0,30.09,NW,314,15.0,22.0,42,0.00,,,0.01,VWS V14.00,2013-02-03 18:58:00,
2013-02-03 14:03:00,51.7,29.4,30.09,WNW,303,8.0,18.0,42,0.00,,,0.01,VWS V14.00,2013-02-03 19:03:00,
2013-02-03 14:08:00,51.3,29.6,30.09,West,281,6.0,14.0,43,0.00,,,0.01,VWS V14.00,2013-02-03 19:08:00,
2013-02-03 14:13:00,51.6,29.9,30.09,West,280,10.0,13.0,43,0.00,,,0.01,VWS V14.00,2013-02-03 19:13:00,
2013-02-03 14:18:00,51.7,31.1,30.09,SW,236,15.0,15.0,45,0.00,,,0.01,VWS V14.00,2013-02-03 19:18:00,
2013-02-03 14:23:00,51.9,29.5,30.09,WNW,289,8.0,13.0,42,0.00,,,0.01,VWS V14.00,2013-02-03 19:23:00,
2013-02-03 14:28:00,52.1,29.7,30.09,WNW,293,10.0,15.0,42,0.00,,,0.01,VWS V14.00,2013-02-03 19:28:00,
2013-02-03 14:33:00,52.0,29.6,30.09,WSW,249,8.0,15.0,42,0.00,,,0.01,VWS V14.00,2013-02-03 19:33:00,
2013-02-03 14:38:00,51.9,30.1,30.09,WNW,288,8.0,12.0,43,0.00,,,0.01,VWS V14.00,2013-02-03 19:38:00,
2013-02-03 14:43:00,51.8,30.0,30.09,West,269,6.0,14.0,43,0.00,,,0.01,VWS V14.00,2013-02-03 19:43:00,
2013-02-03 14:48:00,52.0,30.8,30.09,West,261,5.0,12.0,44,0.00,,,0.01,VWS V14.00,2013-02-03 19:48:00,
2013-02-03 14:53:00,52.3,29.9,30.09,NW,314,9.0,17.0,42,0.00,,,0.01,VWS V14.00,2013-02-03 19:53:00,
2013-02-03 14:58:00,52.7,30.9,30.09,WSW,255,10.0,10.0,43,0.00,,,0.01,VWS V14.00,2013-02-03 19:58:00,
2013-02-03 15:04:00,52.5,29.5,30.09,NW,304,11.0,18.0,41,0.00,,,0.01,VWS V14.00,2013-02-03 20:04:00,
2013-02-03 15:09:00,52.1,29.1,30.09,WNW,285,8.0,14.0,41,0.00,,,0.01,VWS V14.00,2013-02-03 20:09:00,
2013-02-03 15:14:00,52.1,29.7,30.09,West,281,8.0,14.0,42,0.00,,,0.01,VWS V14.00,2013-02-03 20:14:00,
2013-02-03 15:19:00,52.3,29.9,30.09,WNW,291,7.0,10.0,42,0.00,,,0.01,VWS V14.00,2013-02-03 20:19:00,
2013-02-03 15:24:00,52.3,29.9,30.09,WNW,302,6.0,16.0,42,0.00,,,0.01,VWS V14.00,2013-02-03 20:24:00,
2013-02-03 15:29:00,52.5,29.5,30.09,West,274,4.0,14.0,41,0.00,,,0.01,VWS V14.00,2013-02-03 20:29:00,
2013-02-03 15:34:00,52.5,28.3,30.09,WNW,284,11.0,14.0,39,0.00,,,0.01,VWS V14.00,2013-02-03 20:34:00,
2013-02-03 15:39:00,52.2,28.0,30.09,WNW,284,6.0,16.0,39,0.00,,,0.01,VWS V14.00,2013-02-03 20:39:00,
2013-02-03 15:44:00,51.7,26.9,30.09,WNW,294,13.0,14.0,38,0.00,,,0.01,VWS V14.00,2013-02-03 20:44:00,
2013-02-03 15:49:00,51.5,26.8,30.09,WNW,285,11.0,18.0,38,0.00,,,0.01,VWS V14.00,2013-02-03 20:49:00,
2013-02-03 15:55:00,51.5,28.0,30.09,WNW,289,10.0,18.0,40,0.00,,,0.01,VWS V14.00,2013-02-03 20:55:00,
2013-02-03 16:00:00,51.2,27.7,30.09,WNW,295,11.0,16.0,40,0.00,,,0.01,VWS V14.00,2013-02-03 21:00:00,
2013-02-03 16:05:00,51.4,28.5,30.09,West,274,12.0,16.0,41,0.00,,,0.01,VWS V14.00,2013-02-03 21:05:00,
2013-02-03 16:10:00,51.6,28.7,30.09,West,278,8.0,14.0,41,0.00,,,0.01,VWS V14.00,2013-02-03 21:10:00,
2013-02-03 16:15:00,51.3,28.4,30.09,West,269,6.0,13.0,41,0.00,,,0.01,VWS V14.00,2013-02-03 21:15:00,
2013-02-03 16:20:00,51.2,28.3,30.10,NW,307,8.0,18.0,41,0.00,,,0.01,VWS V14.00,2013-02-03 21:20:00,
2013-02-03 16:25:00,51.3,28.4,30.10,WNW,294,11.0,11.0,41,0.00,,,0.01,VWS V14.00,2013-02-03 21:25:00,
2013-02-03 16:31:00,51.2,28.3,30.10,WNW,285,13.0,13.0,41,0.00,,,0.01,VWS V14.00,2013-02-03 21:31:00,
2013-02-03 16:36:00,50.9,28.6,30.10,WNW,302,8.0,16.0,42,0.00,,,0.01,VWS V14.00,2013-02-03 21:36:00,
2013-02-03 16:41:00,50.9,28.1,30.11,NW,312,6.0,11.0,41,0.00,,,0.01,VWS V14.00,2013-02-03 21:41:00,
2013-02-03 16:46:00,50.8,28.0,30.11,NW,321,12.0,14.0,41,0.00,,,0.01,VWS V14.00,2013-02-03 21:46:00,
2013-02-03 16:51:00,50.5,28.3,30.11,WNW,291,14.0,14.0,42,0.00,,,0.01,VWS V14.00,2013-02-03 21:51:00,
2013-02-03 16:56:00,50.6,28.4,30.11,NW,307,9.0,16.0,42,0.00,,,0.01,VWS V14.00,2013-02-03 21:56:00,
2013-02-03 17:01:00,50.1,27.3,30.11,WNW,283,9.0,17.0,41,0.00,,,0.01,VWS V14.00,2013-02-03 22:01:00,
2013-02-03 17:06:00,49.9,27.1,30.11,WSW,248,11.0,13.0,41,0.00,,,0.01,VWS V14.00,2013-02-03 22:06:00,
2013-02-03 17:11:00,49.7,27.6,30.11,WNW,293,7.0,13.0,42,0.00,,,0.01,VWS V14.00,2013-02-03 22:11:00,
2013-02-03 17:16:00,49.5,27.4,30.12,West,277,11.0,15.0,42,0.00,,,0.01,VWS V14.00,2013-02-03 22:16:00,
2013-02-03 17:21:00,49.4,27.9,30.12,WNW,293,10.0,11.0,43,0.00,,,0.01,VWS V14.00,2013-02-03 22:21:00,
2013-02-03 17:26:00,49.1,27.6,30.12,WNW,284,8.0,15.0,43,0.00,,,0.01,VWS V14.00,2013-02-03 22:26:00,
2013-02-03 17:31:00,49.0,28.0,30.12,NW,314,11.0,12.0,44,0.00,,,0.01,VWS V14.00,2013-02-03 22:31:00,
2013-02-03 17:36:00,48.9,28.0,30.12,WNW,293,7.0,14.0,44,0.00,,,0.01,VWS V14.00,2013-02-03 22:36:00,
2013-02-03 17:41:00,48.7,27.8,30.12,NW,314,4.0,10.0,44,0.00,,,0.01,VWS V14.00,2013-02-03 22:41:00,
2013-02-03 17:46:00,48.6,28.2,30.12,WNW,287,5.0,8.0,45,0.00,,,0.01,VWS V14.00,2013-02-03 22:46:00,
2013-02-03 17:51:00,48.4,28.0,30.12,WNW,297,4.0,9.0,45,0.00,,,0.01,VWS V14.00,2013-02-03 22:51:00,
2013-02-03 17:56:00,48.2,27.9,30.13,WNW,294,5.0,9.0,45,0.00,,,0.01,VWS V14.00,2013-02-03 22:56:00,
2013-02-03 18:01:00,47.9,28.1,30.12,WNW,300,7.0,8.0,46,0.00,,,0.01,VWS V14.00,2013-02-03 23:01:00,
2013-02-03 18:06:00,47.7,28.0,30.12,NW,305,4.0,7.0,46,0.00,,,0.01,VWS V14.00,2013-02-03 23:06:00,
2013-02-03 18:11:00,47.1,27.9,30.13,NW,314,5.0,8.0,47,0.00,,,0.01,VWS V14.00,2013-02-03 23:11:00,
2013-02-03 18:16:00,46.7,28.1,30.13,WNW,295,3.0,7.0,48,0.00,,,0.01,VWS V14.00,2013-02-03 23:16:00,
2013-02-03 18:21:00,46.3,28.2,30.13,WNW,299,3.0,7.0,49,0.00,,,0.01,VWS V14.00,2013-02-03 23:21:00,
2013-02-03 18:26:00,45.9,27.8,30.13,NNW,328,4.0,8.0,49,0.00,,,0.01,VWS V14.00,2013-02-03 23:26:00,
2013-02-03 18:31:00,45.3,27.8,30.13,NW,314,2.0,3.0,50,0.00,,,0.01,VWS V14.00,2013-02-03 23:31:00,
2013-02-03 18:36:00,44.9,27.9,30.13,NW,316,2.0,3.0,51,0.00,,,0.01,VWS V14.00,2013-02-03 23:36:00,
2013-02-03 18:41:00,44.6,28.1,30.13,WNW,300,4.0,4.0,52,0.00,,,0.01,VWS V14.00,2013-02-03 23:41:00,
2013-02-03 18:46:00,44.5,28.0,30.12,NW,317,2.0,4.0,52,0.00,,,0.01,VWS V14.00,2013-02-03 23:46:00,
2013-02-03 18:51:00,44.1,28.1,30.13,WNW,302,3.0,4.0,53,0.00,,,0.01,VWS V14.00,2013-02-03 23:51:00,
2013-02-03 18:56:00,43.7,28.2,30.13,WNW,298,1.0,3.0,54,0.00,,,0.01,VWS V14.00,2013-02-03 23:56:00,
2013-02-03 19:01:00,43.6,28.1,30.14,NW,321,2.0,2.0,54,0.00,,,0.01,VWS V14.00,2013-02-04 00:01:00,
2013-02-03 19:06:00,43.4,28.3,30.14,NW,321,3.0,5.0,55,0.00,,,0.01,VWS V14.00,2013-02-04 00:06:00,
2013-02-03 19:12:00,43.2,28.6,30.14,WNW,297,0.0,2.0,56,0.00,,,0.01,VWS V14.00,2013-02-04 00:12:00,
2013-02-03 19:17:00,43.0,28.4,30.14,West,281,0.0,1.0,56,0.00,,,0.01,VWS V14.00,2013-02-04 00:17:00,
2013-02-03 19:22:00,42.9,28.3,30.14,WNW,283,0.0,1.0,56,0.00,,,0.01,VWS V14.00,2013-02-04 00:22:00,
2013-02-03 19:27:00,42.7,28.5,30.14,WNW,291,1.0,1.0,57,0.00,,,0.01,VWS V14.00,2013-02-04 00:27:00,
2013-02-03 19:32:00,42.5,28.4,30.14,NNW,340,2.0,2.0,57,0.00,,,0.01,VWS V14.00,2013-02-04 00:32:00,
2013-02-03 19:37:00,42.5,28.8,30.14,NNW,331,2.0,2.0,58,0.00,,,0.01,VWS V14.00,2013-02-04 00:37:00,
2013-02-03 19:42:00,42.2,28.5,30.14,NW,321,2.0,2.0,58,0.00,,,0.01,VWS V14.00,2013-02-04 00:42:00,
2013-02-03 19:47:00,42.2,28.9,30.15,NW,315,1.0,5.0,59,0.00,,,0.01,VWS V14.00,2013-02-04 00:47:00,
2013-02-03 19:52:00,42.0,28.7,30.15,NW,325,2.0,3.0,59,0.00,,,0.01,VWS V14.00,2013-02-04 00:52:00,
2013-02-03 19:57:00,42.0,28.7,30.15,North,4,4.0,4.0,59,0.00,,,0.01,VWS V14.00,2013-02-04 00:57:00,
2013-02-03 20:02:00,41.8,29.0,30.15,NNW,337,3.0,4.0,60,0.00,,,0.01,VWS V14.00,2013-02-04 01:02:00,
2013-02-03 20:07:00,41.5,28.7,30.15,NW,311,3.0,3.0,60,0.00,,,0.01,VWS V14.00,2013-02-04 01:07:00,
2013-02-03 20:12:00,41.0,28.6,30.15,NW,314,2.0,3.0,61,0.00,,,0.01,VWS V14.00,2013-02-04 01:12:00,
2013-02-03 20:17:00,41.0,29.0,30.15,NNW,332,2.0,3.0,62,0.00,,,0.01,VWS V14.00,2013-02-04 01:17:00,
2013-02-03 20:22:00,40.9,28.9,30.15,NW,326,2.0,3.0,62,0.00,,,0.01,VWS V14.00,2013-02-04 01:22:00,
2013-02-03 20:27:00,40.8,28.8,30.15,NNW,328,2.0,2.0,62,0.00,,,0.01,VWS V14.00,2013-02-04 01:27:00,
2013-02-03 20:32:00,40.8,28.8,30.15,NNW,340,3.0,3.0,62,0.00,,,0.01,VWS V14.00,2013-02-04 01:32:00,
2013-02-03 20:37:00,40.7,28.7,30.15,NNW,333,2.0,2.0,62,0.00,,,0.01,VWS V14.00,2013-02-04 01:37:00,
2013-02-03 20:42:00,40.5,28.5,30.15,NNW,329,2.0,2.0,62,0.00,,,0.01,VWS V14.00,2013-02-04 01:42:00,
2013-02-03 20:47:00,40.3,28.7,30.15,NW,325,1.0,2.0,63,0.00,,,0.01,VWS V14.00,2013-02-04 01:47:00,
2013-02-03 20:52:00,40.4,28.8,30.15,NNW,330,2.0,2.0,63,0.00,,,0.01,VWS V14.00,2013-02-04 01:52:00,
2013-02-03 20:57:00,40.3,28.7,30.15,NNW,344,2.0,2.0,63,0.00,,,0.01,VWS V14.00,2013-02-04 01:57:00,
2013-02-03 21:02:00,40.3,28.7,30.15,NNW,342,1.0,2.0,63,0.00,,,0.01,VWS V14.00,2013-02-04 02:02:00,
2013-02-03 21:07:00,39.9,28.7,30.15,NNW,337,1.0,2.0,64,0.00,,,0.01,VWS V14.00,2013-02-04 02:07:00,
2013-02-03 21:12:00,39.7,28.5,30.15,NNW,338,1.0,1.0,64,0.00,,,0.01,VWS V14.00,2013-02-04 02:12:00,
2013-02-03 21:17:00,39.3,28.5,30.15,NNW,337,1.0,1.0,65,0.00,,,0.01,VWS V14.00,2013-02-04 02:17:00,
2013-02-03 21:22:00,39.1,28.3,30.15,NNW,337,1.0,1.0,65,0.00,,,0.01,VWS V14.00,2013-02-04 02:22:00,
2013-02-03 21:27:00,39.2,28.8,30.15,NNW,338,2.0,2.0,66,0.00,,,0.01,VWS V14.00,2013-02-04 02:27:00,
2013-02-03 21:33:00,39.2,28.4,30.15,North,352,2.0,2.0,65,0.00,,,0.01,VWS V14.00,2013-02-04 02:33:00,
2013-02-03 21:38:00,39.1,28.3,30.15,North,6,2.0,3.0,65,0.00,,,0.01,VWS V14.00,2013-02-04 02:38:00,
2013-02-03 21:43:00,38.9,28.5,30.15,North,4,2.0,2.0,66,0.00,,,0.01,VWS V14.00,2013-02-04 02:43:00,
2013-02-03 21:48:00,38.8,28.4,30.15,NNW,348,1.0,2.0,66,0.00,,,0.01,VWS V14.00,2013-02-04 02:48:00,
2013-02-03 21:53:00,38.7,28.3,30.15,North,351,1.0,2.0,66,0.00,,,0.01,VWS V14.00,2013-02-04 02:53:00,
2013-02-03 21:58:00,38.5,28.1,30.15,NNE,18,1.0,1.0,66,0.00,,,0.01,VWS V14.00,2013-02-04 02:58:00,
2013-02-03 22:03:00,38.4,28.4,30.16,North,352,2.0,3.0,67,0.00,,,0.01,VWS V14.00,2013-02-04 03:03:00,
2013-02-03 22:08:00,38.3,28.3,30.16,North,356,1.0,2.0,67,0.00,,,0.01,VWS V14.00,2013-02-04 03:08:00,
2013-02-03 22:13:00,38.2,28.2,30.16,North,355,1.0,2.0,67,0.00,,,0.01,VWS V14.00,2013-02-04 03:13:00,
2013-02-03 22:18:00,37.7,27.8,30.16,North,356,0.0,0.0,67,0.00,,,0.01,VWS V14.00,2013-02-04 03:18:00,
2013-02-03 22:23:00,37.3,27.7,30.16,North,357,0.0,0.0,68,0.00,,,0.01,VWS V14.00,2013-02-04 03:23:00,
2013-02-03 22:28:00,37.2,28.0,30.16,North,357,0.0,0.0,69,0.00,,,0.01,VWS V14.00,2013-02-04 03:28:00,
2013-02-03 22:33:00,37.3,28.1,30.16,North,355,0.0,0.0,69,0.00,,,0.01,VWS V14.00,2013-02-04 03:33:00,
2013-02-03 22:38:00,37.2,28.0,30.16,North,356,0.0,0.0,69,0.00,,,0.01,VWS V14.00,2013-02-04 03:38:00,
2013-02-03 22:43:00,36.8,27.6,30.16,North,357,0.0,0.0,69,0.00,,,0.01,VWS V14.00,2013-02-04 03:43:00,
2013-02-03 22:48:00,36.6,27.8,30.16,North,355,0.0,0.0,70,0.00,,,0.01,VWS V14.00,2013-02-04 03:48:00,
2013-02-03 22:53:00,36.1,27.6,30.16,North,356,0.0,0.0,71,0.00,,,0.01,VWS V14.00,2013-02-04 03:53:00,
2013-02-03 22:58:00,36.0,27.5,30.16,North,356,0.0,0.0,71,0.00,,,0.01,VWS V14.00,2013-02-04 03:58:00,
2013-02-03 23:03:00,36.1,27.6,30.16,North,355,0.0,0.0,71,0.00,,,0.01,VWS V14.00,2013-02-04 04:03:00,
2013-02-03 23:08:00,35.7,27.6,30.16,North,355,0.0,0.0,72,0.00,,,0.01,VWS V14.00,2013-02-04 04:08:00,
2013-02-03 23:13:00,35.3,27.2,30.17,North,355,0.0,0.0,72,0.00,,,0.01,VWS V14.00,2013-02-04 04:13:00,
2013-02-03 23:18:00,34.8,27.4,30.17,North,356,0.0,0.0,74,0.00,,,0.01,VWS V14.00,2013-02-04 04:18:00,
2013-02-03 23:23:00,34.8,27.4,30.16,North,357,0.0,0.0,74,0.00,,,0.01,VWS V14.00,2013-02-04 04:23:00,
2013-02-03 23:28:00,34.6,27.2,30.17,North,356,0.0,1.0,74,0.00,,,0.01,VWS V14.00,2013-02-04 04:28:00,
2013-02-03 23:33:00,34.2,27.1,30.17,North,355,0.0,0.0,75,0.00,,,0.01,VWS V14.00,2013-02-04 04:33:00,
2013-02-03 23:38:00,33.9,27.1,30.17,North,355,0.0,0.0,76,0.00,,,0.01,VWS V14.00,2013-02-04 04:38:00,
2013-02-03 23:43:00,34.3,27.5,30.17,North,356,1.0,1.0,76,0.00,,,0.01,VWS V14.00,2013-02-04 04:43:00,
2013-02-03 23:48:00,35.0,27.9,30.16,North,5,1.0,1.0,75,0.00,,,0.01,VWS V14.00,2013-02-04 04:48:00,
2013-02-03 23:53:00,35.5,27.7,30.16,NNE,23,1.0,1.0,73,0.00,,,0.01,VWS V14.00,2013-02-04 04:53:00,
2013-02-03 23:58:00,35.7,27.9,30.16,NNE,30,2.0,2.0,73,0.00,,,0.01,VWS V14.00,2013-02-04 04:58:00,